createdAt,value
2022-12-03T00:02:10.021Z,28.83
2022-12-03T00:04:36.477Z,28.67
2022-12-03T00:07:03.774Z,29.92
2022-12-03T00:09:30.212Z,26.30
2022-12-03T00:11:56.601Z,29.20
2022-12-03T00:14:23.114Z,30.45
2022-12-03T00:16:49.549Z,29.42
2022-12-03T00:19:15.949Z,31.02
2022-12-03T00:21:42.346Z,26.63
2022-12-03T00:24:08.908Z,32.90
2022-12-03T00:26:35.271Z,34.03
2022-12-03T00:29:01.616Z,30.17
2022-12-03T00:31:28.041Z,32.85
2022-12-03T00:33:54.572Z,32.33
2022-12-03T00:36:21.074Z,32.33
2022-12-03T00:38:47.468Z,30.10
2022-12-03T00:41:13.834Z,30.63
2022-12-03T00:43:40.358Z,31.67
2022-12-03T00:46:06.764Z,30.88
2022-12-03T00:48:33.130Z,31.77
2022-12-03T00:50:59.688Z,29.85
2022-12-03T00:53:27.133Z,33.00
2022-12-03T00:55:53.498Z,32.00
2022-12-03T00:58:19.811Z,27.70
2022-12-03T01:00:46.098Z,31.65
2022-12-03T01:03:12.512Z,33.58
2022-12-03T01:05:38.871Z,31.75
2022-12-03T01:08:05.287Z,32.65
2022-12-03T01:10:31.630Z,29.38
2022-12-03T01:12:57.928Z,28.85
2022-12-03T01:15:24.245Z,32.88
2022-12-03T01:17:50.524Z,28.77
2022-12-03T01:20:16.862Z,30.80
2022-12-03T01:22:43.139Z,32.53
2022-12-03T01:25:09.684Z,26.33
2022-12-03T01:27:36.046Z,32.28
2022-12-03T01:30:02.365Z,33.95
2022-12-03T01:32:28.703Z,32.83
2022-12-03T01:34:55.748Z,30.13
2022-12-03T01:37:23.589Z,29.50
2022-12-03T01:39:50.168Z,29.95
2022-12-03T01:42:18.016Z,29.90
2022-12-03T01:44:44.703Z,36.45
2022-12-03T01:47:13.544Z,30.70
2022-12-03T01:50:03.099Z,29.77
2022-12-03T01:52:31.220Z,28.38
2022-12-03T01:54:58.505Z,32.20
2022-12-03T01:57:26.568Z,31.35
2022-12-03T01:59:53.794Z,31.65
2022-12-03T02:02:22.598Z,33.88
2022-12-03T02:04:49.529Z,33.38
2022-12-03T02:07:26.633Z,35.75
2022-12-03T02:09:53.868Z,36.50
2022-12-03T02:12:22.929Z,32.05
2022-12-03T02:14:49.384Z,36.05
2022-12-03T02:17:15.986Z,31.73
2022-12-03T02:19:42.503Z,31.92
2022-12-03T02:22:20.968Z,34.60
2022-12-03T02:24:59.659Z,31.55
2022-12-03T02:27:28.151Z,34.08
2022-12-03T02:29:54.553Z,30.05
2022-12-03T02:32:23.306Z,29.40
2022-12-03T02:34:49.849Z,33.40
2022-12-03T02:37:18.481Z,30.42
2022-12-03T02:39:47.284Z,33.30
2022-12-03T02:42:32.284Z,31.52
2022-12-03T02:45:04.842Z,36.47
2022-12-03T02:47:33.647Z,33.63
2022-12-03T02:50:00.510Z,35.50
2022-12-03T02:52:27.249Z,32.25
2022-12-03T02:54:54.028Z,33.92
2022-12-03T02:57:20.721Z,33.03
2022-12-03T02:59:47.428Z,37.05
2022-12-03T03:02:14.044Z,32.05
2022-12-03T03:04:41.173Z,33.22
2022-12-03T03:07:08.035Z,35.47
2022-12-03T03:09:35.167Z,35.60
2022-12-03T03:12:01.632Z,34.25
2022-12-03T03:14:28.136Z,34.55
2022-12-03T03:16:56.287Z,33.65
2022-12-03T03:19:24.565Z,37.25
2022-12-03T03:21:51.203Z,33.13
2022-12-03T03:24:17.701Z,36.17
2022-12-03T03:26:44.198Z,33.25
2022-12-03T03:29:10.904Z,36.25
2022-12-03T03:31:37.781Z,35.17
2022-12-03T03:34:04.543Z,33.67
2022-12-03T03:36:31.538Z,35.70
2022-12-03T03:38:58.150Z,34.00
2022-12-03T03:41:25.458Z,32.92
2022-12-03T03:43:51.987Z,34.55
2022-12-03T03:46:18.916Z,40.17
2022-12-03T03:48:45.569Z,37.53
2022-12-03T03:51:12.625Z,36.35
2022-12-03T03:53:43.569Z,37.85
2022-12-03T03:58:36.532Z,33.65
2022-12-03T04:01:03.082Z,37.08
2022-12-03T04:03:29.521Z,36.70
2022-12-03T04:05:56.134Z,33.78
2022-12-03T04:08:22.628Z,35.42
2022-12-03T04:11:12.264Z,38.95
2022-12-03T04:13:38.586Z,36.15
2022-12-03T04:16:05.045Z,36.17
2022-12-03T04:18:43.323Z,39.00
2022-12-03T04:21:28.823Z,32.40
2022-12-03T04:23:55.311Z,34.38
2022-12-03T04:26:40.417Z,37.25
2022-12-03T04:29:07.014Z,33.78
2022-12-03T04:31:51.777Z,35.05
2022-12-03T04:34:36.764Z,40.10
2022-12-03T04:37:03.129Z,37.45
2022-12-03T04:39:29.587Z,32.70
2022-12-03T04:41:56.083Z,36.13
2022-12-03T04:44:37.708Z,29.10
2022-12-03T04:47:09.538Z,31.95
2022-12-03T04:49:38.310Z,29.27
2022-12-03T04:52:04.858Z,34.42
2022-12-03T04:54:31.494Z,31.45
2022-12-03T04:56:57.984Z,30.63
2022-12-03T04:59:24.464Z,37.50
2022-12-03T05:01:51.140Z,31.23
2022-12-03T05:04:17.808Z,29.92
2022-12-03T05:06:44.150Z,32.40
2022-12-03T05:09:11.232Z,30.75
2022-12-03T05:11:37.899Z,29.52
2022-12-03T05:14:04.445Z,31.48
2022-12-03T05:16:31.068Z,30.15
2022-12-03T05:18:57.664Z,35.95
2022-12-03T05:21:24.198Z,33.20
2022-12-03T05:23:50.580Z,34.63
2022-12-03T05:26:16.877Z,37.47
2022-12-03T05:28:43.275Z,34.17
2022-12-03T05:31:09.943Z,38.97
2022-12-03T05:33:40.848Z,38.97
2022-12-03T05:36:10.264Z,37.05
2022-12-03T05:38:36.582Z,34.70
2022-12-03T05:41:02.945Z,30.15
2022-12-03T05:43:29.302Z,33.95
2022-12-03T05:45:55.740Z,36.10
2022-12-03T05:48:22.231Z,35.33
2022-12-03T05:50:48.607Z,34.72
2022-12-03T05:53:15.760Z,33.92
2022-12-03T05:55:42.259Z,33.78
2022-12-03T05:58:08.660Z,37.83
2022-12-03T06:00:42.661Z,36.90
2022-12-03T06:03:09.766Z,35.65
2022-12-03T06:05:36.357Z,31.35
2022-12-03T06:08:02.770Z,31.15
2022-12-03T06:10:29.672Z,33.03
2022-12-03T06:12:56.148Z,34.35
2022-12-03T06:15:22.576Z,34.60
2022-12-03T06:17:49.171Z,32.47
2022-12-03T06:20:17.252Z,31.60
2022-12-03T06:22:43.689Z,30.55
2022-12-03T06:25:10.710Z,35.50
2022-12-03T06:27:37.000Z,27.58
2022-12-03T06:30:04.912Z,29.33
2022-12-03T06:32:31.610Z,33.58
2022-12-03T06:34:58.085Z,31.25
2022-12-03T06:37:24.576Z,33.45
2022-12-03T06:39:50.981Z,33.38
2022-12-03T06:42:17.344Z,33.40
2022-12-03T06:44:43.795Z,33.67
2022-12-03T06:47:10.177Z,31.38
2022-12-03T06:49:36.647Z,31.88
2022-12-03T06:52:03.153Z,30.27
2022-12-03T06:54:29.597Z,32.67
2022-12-03T06:56:55.934Z,31.50
2022-12-03T06:59:22.263Z,33.38
2022-12-03T07:01:48.854Z,31.95
2022-12-03T07:04:15.291Z,34.30
2022-12-03T07:06:41.762Z,31.38
2022-12-03T07:09:08.152Z,34.70
2022-12-03T07:11:40.419Z,36.28
2022-12-03T07:14:07.869Z,36.60
2022-12-03T07:16:38.193Z,35.25
2022-12-03T07:19:05.466Z,33.17
2022-12-03T07:21:31.990Z,39.08
2022-12-03T07:23:58.400Z,32.03
2022-12-03T07:26:24.772Z,32.70
2022-12-03T07:28:54.414Z,36.75
2022-12-03T07:31:20.947Z,36.53
2022-12-03T07:33:47.426Z,33.95
2022-12-03T07:36:13.983Z,34.38
2022-12-03T07:38:40.400Z,35.55
2022-12-03T07:41:06.796Z,34.88
2022-12-03T07:43:33.992Z,34.20
2022-12-03T07:46:00.868Z,38.63
2022-12-03T07:48:27.308Z,31.35
2022-12-03T07:50:53.735Z,39.58
2022-12-03T07:53:20.085Z,33.05
2022-12-03T07:55:46.487Z,34.50
2022-12-03T07:58:13.005Z,37.13
2022-12-03T08:00:39.778Z,35.92
2022-12-03T08:03:06.143Z,36.30
2022-12-03T08:05:32.546Z,36.38
2022-12-03T08:07:59.018Z,38.20
2022-12-03T08:10:25.482Z,38.78
2022-12-03T08:12:52.057Z,37.53
2022-12-03T08:15:20.017Z,36.25
2022-12-03T08:17:47.583Z,40.55
2022-12-03T08:20:14.224Z,45.45
2022-12-03T08:22:41.236Z,42.75
2022-12-03T08:25:13.516Z,38.88
2022-12-03T08:27:39.837Z,39.08
2022-12-03T08:30:06.532Z,42.50
2022-12-03T08:32:32.849Z,43.53
2022-12-03T08:35:01.070Z,40.72
2022-12-03T08:37:28.984Z,43.15
2022-12-03T08:39:55.309Z,39.50
2022-12-03T08:42:41.428Z,40.45
2022-12-03T08:45:27.987Z,40.35
2022-12-03T08:47:57.565Z,36.15
2022-12-03T08:50:29.129Z,38.63
2022-12-03T08:52:59.248Z,41.67
2022-12-03T08:55:48.921Z,43.53
2022-12-03T08:58:26.896Z,37.40
2022-12-03T09:00:56.764Z,40.97
2022-12-03T09:03:23.342Z,41.00
2022-12-03T09:05:49.718Z,35.58
2022-12-03T09:08:16.092Z,39.13
2022-12-03T09:10:42.529Z,43.08
2022-12-03T09:13:09.200Z,42.10
2022-12-03T09:15:35.479Z,40.20
2022-12-03T09:18:01.843Z,42.17
2022-12-03T09:20:28.216Z,41.88
2022-12-03T09:22:54.586Z,42.88
2022-12-03T09:25:20.911Z,45.13
2022-12-03T09:27:47.370Z,37.88
2022-12-03T09:30:13.838Z,49.05
2022-12-03T09:32:40.161Z,41.83
2022-12-03T09:35:06.806Z,50.33
2022-12-03T09:37:33.123Z,42.28
2022-12-03T09:39:59.385Z,47.65
2022-12-03T09:42:25.903Z,47.15
2022-12-03T09:44:52.509Z,40.53
2022-12-03T09:47:19.106Z,39.05
2022-12-03T09:49:45.572Z,43.33
2022-12-03T09:52:13.768Z,41.08
2022-12-03T09:54:51.999Z,42.53
2022-12-03T09:57:18.845Z,37.72
2022-12-03T09:59:45.434Z,36.85
2022-12-03T10:02:21.323Z,41.35
2022-12-03T10:04:48.426Z,43.10
2022-12-03T10:07:14.907Z,41.45
2022-12-03T10:09:41.287Z,48.83
2022-12-03T10:12:11.831Z,45.55
2022-12-03T10:14:38.352Z,45.83
2022-12-03T10:17:05.170Z,45.95
2022-12-03T10:19:32.590Z,41.83
2022-12-03T10:21:58.955Z,51.60
2022-12-03T10:24:28.940Z,54.95
2022-12-03T10:27:18.366Z,49.07
2022-12-03T10:29:53.446Z,45.58
2022-12-03T10:32:27.148Z,49.17
2022-12-03T10:35:06.635Z,46.63
2022-12-03T10:37:32.953Z,50.78
2022-12-03T10:40:09.103Z,49.70
2022-12-03T10:42:36.935Z,50.25
2022-12-03T10:45:06.600Z,46.40
2022-12-03T10:47:33.095Z,47.42
2022-12-03T10:50:04.199Z,45.55
2022-12-03T10:52:30.529Z,46.65
2022-12-03T10:54:56.929Z,49.00
2022-12-03T10:57:23.280Z,47.50
2022-12-03T10:59:49.798Z,48.88
2022-12-03T11:02:21.104Z,50.33
2022-12-03T11:04:47.641Z,47.30
2022-12-03T11:07:18.815Z,53.40
2022-12-03T11:09:49.542Z,45.55
2022-12-03T11:12:23.590Z,52.28
2022-12-03T11:14:54.347Z,45.47
2022-12-03T11:19:47.947Z,41.67
2022-12-03T11:22:14.205Z,45.92
2022-12-03T11:24:40.631Z,39.58
2022-12-03T11:27:07.046Z,41.28
2022-12-03T11:29:47.660Z,44.08
2022-12-03T11:32:52.685Z,40.25
2022-12-03T11:35:24.986Z,44.53
2022-12-03T11:37:51.683Z,41.58
2022-12-03T11:40:18.015Z,43.50
2022-12-03T11:42:45.532Z,41.72
2022-12-03T11:45:30.617Z,39.17
2022-12-03T11:47:59.929Z,37.50
2022-12-03T11:50:40.422Z,35.53
2022-12-03T11:53:21.499Z,29.48
2022-12-03T11:55:51.979Z,36.05
2022-12-03T11:58:24.523Z,32.95
2022-12-03T12:00:58.208Z,28.67
2022-12-03T12:03:29.327Z,32.33
2022-12-03T12:06:09.725Z,28.73
2022-12-03T12:08:37.576Z,30.58
2022-12-03T12:11:04.315Z,28.55
2022-12-03T12:13:30.706Z,29.88
2022-12-03T12:15:57.996Z,29.27
2022-12-03T12:18:34.541Z,29.42
2022-12-03T12:21:19.763Z,27.05
2022-12-03T12:23:46.128Z,33.63
2022-12-03T12:26:12.517Z,28.70
2022-12-03T12:28:38.833Z,30.88
2022-12-03T12:31:10.382Z,28.58
2022-12-03T12:33:36.823Z,27.10
2022-12-03T12:36:08.475Z,27.73
2022-12-03T12:38:34.765Z,27.88
2022-12-03T12:41:04.914Z,27.23
2022-12-03T12:43:33.805Z,28.95
2022-12-03T12:46:13.824Z,36.88
2022-12-03T12:48:47.652Z,27.90
2022-12-03T12:51:15.470Z,31.42
2022-12-03T12:53:45.358Z,29.80
2022-12-03T12:56:20.708Z,30.38
2022-12-03T12:58:47.150Z,31.90
2022-12-03T13:01:19.492Z,30.00
2022-12-03T13:03:46.021Z,25.42
2022-12-03T13:06:14.321Z,26.77
2022-12-03T13:08:42.739Z,29.77
2022-12-03T13:11:24.377Z,28.05
2022-12-03T13:13:50.988Z,32.67
2022-12-03T13:16:26.423Z,29.90
2022-12-03T13:18:53.580Z,29.15
2022-12-03T13:21:38.765Z,32.65
2022-12-03T13:24:23.698Z,26.83
2022-12-03T13:26:49.990Z,31.05
2022-12-03T13:29:18.176Z,30.10
2022-12-03T13:31:54.460Z,31.30
2022-12-03T13:34:21.829Z,28.65
2022-12-03T13:36:53.581Z,33.95
2022-12-03T13:39:26.981Z,30.13
2022-12-03T13:42:12.116Z,36.17
2022-12-03T13:44:44.037Z,30.25
2022-12-03T13:47:20.671Z,32.85
2022-12-03T13:50:03.688Z,35.22
2022-12-03T13:52:32.235Z,35.35
2022-12-03T13:55:02.551Z,37.95
2022-12-03T13:57:28.837Z,34.03
2022-12-03T13:59:55.385Z,41.63
2022-12-03T14:02:22.206Z,45.05
2022-12-03T14:04:48.581Z,49.28
2022-12-03T14:07:20.291Z,50.65
2022-12-03T14:09:46.651Z,54.60
2022-12-03T14:12:28.951Z,52.38
2022-12-03T14:15:13.084Z,55.53
2022-12-03T14:17:39.469Z,49.33
2022-12-03T14:20:06.161Z,48.20
2022-12-03T14:22:32.523Z,50.72
2022-12-03T14:24:58.900Z,54.40
2022-12-03T14:27:25.297Z,47.53
2022-12-03T14:29:52.079Z,55.03
2022-12-03T14:32:19.012Z,45.30
2022-12-03T14:34:45.415Z,46.25
2022-12-03T14:37:11.745Z,47.42
2022-12-03T14:39:38.257Z,42.25
2022-12-03T14:42:13.685Z,40.78
2022-12-03T14:44:47.388Z,46.65
2022-12-03T14:47:14.757Z,43.38
2022-12-03T14:49:41.350Z,38.83
2022-12-03T14:52:11.999Z,39.00
2022-12-03T14:54:44.962Z,41.65
2022-12-03T14:57:12.720Z,38.33
2022-12-03T14:59:39.862Z,36.80
2022-12-03T15:02:06.600Z,39.15
2022-12-03T15:04:32.994Z,40.17
2022-12-03T15:06:59.313Z,33.20
2022-12-03T15:09:25.692Z,35.40
2022-12-03T15:11:52.026Z,35.58
2022-12-03T15:14:18.304Z,39.53
2022-12-03T15:16:44.660Z,32.70
2022-12-03T15:19:10.998Z,30.05
2022-12-03T15:21:37.362Z,30.25
2022-12-03T15:24:03.905Z,31.17
2022-12-03T15:26:30.317Z,33.75
2022-12-03T15:28:56.684Z,31.35
2022-12-03T15:31:23.023Z,35.92
2022-12-03T15:33:49.452Z,37.67
2022-12-03T15:36:15.771Z,33.70
2022-12-03T15:38:42.161Z,31.85
2022-12-03T15:41:21.225Z,31.73
2022-12-03T15:43:48.128Z,27.77
2022-12-03T15:46:14.480Z,35.42
2022-12-03T15:48:40.873Z,32.05
2022-12-03T15:51:07.244Z,29.25
2022-12-03T15:53:33.655Z,33.92
2022-12-03T15:56:00.018Z,34.75
2022-12-03T15:58:26.324Z,29.25
2022-12-03T16:00:52.605Z,38.15
2022-12-03T16:03:18.945Z,37.97
2022-12-03T16:05:45.262Z,37.40
2022-12-03T16:08:11.614Z,40.97
2022-12-03T16:10:37.876Z,37.38
2022-12-03T16:13:04.176Z,42.83
2022-12-03T16:15:30.551Z,49.80
2022-12-03T16:17:56.861Z,43.72
2022-12-03T16:20:23.175Z,51.05
2022-12-03T16:22:49.462Z,53.33
2022-12-03T16:25:15.762Z,47.92
2022-12-03T16:27:42.061Z,41.65
2022-12-03T16:30:08.676Z,46.47
2022-12-03T16:32:35.046Z,49.63
2022-12-03T16:35:01.684Z,48.90
2022-12-03T16:37:28.110Z,44.88
2022-12-03T16:39:54.688Z,49.72
2022-12-03T16:42:21.269Z,53.90
2022-12-03T16:45:02.837Z,51.15
2022-12-03T16:47:33.576Z,50.47
2022-12-03T16:50:00.947Z,44.85
2022-12-03T16:52:27.292Z,47.90
2022-12-03T16:54:53.612Z,56.03
2022-12-03T16:57:19.930Z,50.28
2022-12-03T16:59:46.209Z,52.88
2022-12-03T17:02:13.062Z,56.35
2022-12-03T17:04:39.484Z,49.08
2022-12-03T17:07:05.798Z,52.97
2022-12-03T17:09:32.131Z,51.83
2022-12-03T17:11:58.479Z,57.53
2022-12-03T17:14:28.652Z,46.60
2022-12-03T17:16:59.344Z,51.97
2022-12-03T17:19:25.635Z,52.67
2022-12-03T17:21:53.922Z,53.08
2022-12-03T17:24:21.284Z,52.20
2022-12-03T17:26:47.640Z,56.67
2022-12-03T17:29:14.443Z,53.67
2022-12-03T17:31:42.385Z,53.20
2022-12-03T17:34:09.303Z,58.17
2022-12-03T17:36:35.657Z,53.03
2022-12-03T17:39:01.958Z,55.53
2022-12-03T17:41:28.370Z,49.22
2022-12-03T17:43:54.856Z,50.85
2022-12-03T17:46:21.344Z,49.58
2022-12-03T17:48:47.789Z,59.55
2022-12-03T17:51:14.096Z,53.90
2022-12-03T17:53:40.393Z,60.08
2022-12-03T17:56:06.795Z,56.47
2022-12-03T17:58:33.123Z,54.33
2022-12-03T18:01:02.750Z,56.60
2022-12-03T18:03:29.572Z,55.38
2022-12-03T18:05:56.026Z,54.40
2022-12-03T18:08:22.432Z,56.13
2022-12-03T18:10:48.758Z,52.50
2022-12-03T18:13:15.025Z,51.67
2022-12-03T18:15:41.382Z,57.15
2022-12-03T18:18:07.821Z,49.60
2022-12-03T18:20:34.197Z,55.67
2022-12-03T18:23:00.582Z,58.03
2022-12-03T18:25:27.112Z,52.58
2022-12-03T18:27:55.423Z,52.83
2022-12-03T18:30:21.886Z,44.38
2022-12-03T18:32:50.515Z,46.45
2022-12-03T18:35:20.039Z,48.45
2022-12-03T18:37:46.558Z,52.70
2022-12-03T18:40:17.913Z,48.35
2022-12-03T18:42:44.455Z,57.17
2022-12-03T18:45:11.508Z,50.80
2022-12-03T18:47:37.837Z,47.53
2022-12-03T18:50:05.245Z,46.35
2022-12-03T18:52:31.521Z,51.22
2022-12-03T18:54:57.929Z,46.78
2022-12-03T18:57:24.276Z,48.05
2022-12-03T18:59:53.435Z,45.17
2022-12-03T19:03:00.600Z,49.90
2022-12-03T19:05:12.573Z,49.40
2022-12-03T19:07:38.974Z,49.90
2022-12-03T19:10:05.617Z,46.20
2022-12-03T19:12:32.763Z,50.55
2022-12-03T19:14:59.408Z,45.25
2022-12-03T19:17:27.384Z,51.45
2022-12-03T19:19:54.309Z,48.55
2022-12-03T19:22:20.976Z,48.55
2022-12-03T19:24:47.305Z,48.70
2022-12-03T19:27:13.729Z,45.28
2022-12-03T19:29:40.428Z,44.63
2022-12-03T19:32:06.849Z,48.70
2022-12-03T19:34:33.432Z,47.88
2022-12-03T19:36:59.711Z,47.58
2022-12-03T19:39:26.016Z,47.20
2022-12-03T19:41:52.370Z,47.17
2022-12-03T19:44:19.160Z,51.15
2022-12-03T19:46:45.473Z,49.38
2022-12-03T19:49:12.147Z,55.50
2022-12-03T19:51:38.862Z,51.75
2022-12-03T19:54:05.904Z,50.28
2022-12-03T19:56:32.318Z,49.47
2022-12-03T19:58:58.786Z,47.42
2022-12-03T20:01:26.956Z,50.55
2022-12-03T20:03:54.657Z,47.63
2022-12-03T20:06:23.239Z,41.58
2022-12-03T20:08:50.250Z,43.25
2022-12-03T20:11:20.942Z,50.40
2022-12-03T20:13:47.853Z,43.67
2022-12-03T20:16:15.414Z,48.50
2022-12-03T20:18:46.372Z,46.08
2022-12-03T20:23:39.317Z,46.13
2022-12-03T20:26:09.194Z,46.75
2022-12-03T20:28:35.623Z,47.20
2022-12-03T20:31:03.160Z,47.75
2022-12-03T20:33:31.131Z,49.58
2022-12-03T20:35:57.827Z,48.25
2022-12-03T20:38:26.277Z,47.60
2022-12-03T20:40:53.127Z,49.28
2022-12-03T20:43:19.693Z,51.42
2022-12-03T20:45:46.140Z,51.70
2022-12-03T20:48:12.556Z,42.55
2022-12-03T20:50:39.248Z,52.80
2022-12-03T20:53:24.384Z,47.03
2022-12-03T20:55:57.947Z,48.05
2022-12-03T20:58:24.395Z,47.20
2022-12-03T21:00:50.869Z,47.40
2022-12-03T21:03:17.185Z,45.88
2022-12-03T21:05:46.468Z,50.85
2022-12-03T21:08:13.082Z,49.50
2022-12-03T21:10:46.285Z,44.75
2022-12-03T21:13:13.724Z,46.30
2022-12-03T21:15:40.486Z,43.92
2022-12-03T21:18:08.728Z,48.75
2022-12-03T21:20:47.666Z,46.45
2022-12-03T21:23:14.657Z,45.80
2022-12-03T21:25:41.014Z,48.42
2022-12-03T21:28:08.277Z,44.92
2022-12-03T21:30:37.403Z,46.25
2022-12-03T21:33:04.263Z,39.80
2022-12-03T21:35:30.623Z,52.20
2022-12-03T21:37:57.127Z,49.28
2022-12-03T21:40:23.522Z,47.25
2022-12-03T21:42:49.897Z,45.60
2022-12-03T21:45:16.441Z,47.67
2022-12-03T21:47:46.223Z,48.25
2022-12-03T21:50:12.594Z,46.83
2022-12-03T21:52:39.025Z,47.90
2022-12-03T21:55:06.420Z,49.15
2022-12-03T21:57:34.792Z,47.03
2022-12-03T22:00:01.146Z,47.83
2022-12-03T22:02:28.116Z,50.53
2022-12-03T22:04:54.531Z,51.72
2022-12-03T22:07:20.832Z,46.10
2022-12-03T22:09:47.116Z,46.35
2022-12-03T22:12:13.536Z,46.00
2022-12-03T22:14:39.892Z,50.88
2022-12-03T22:17:06.284Z,45.63
2022-12-03T22:19:32.671Z,43.83
2022-12-03T22:21:59.195Z,51.17
2022-12-03T22:24:25.616Z,51.50
2022-12-03T22:26:53.549Z,56.28
2022-12-03T22:29:19.945Z,51.65
2022-12-03T22:31:46.341Z,51.58
2022-12-03T22:34:12.927Z,46.55
2022-12-03T22:36:39.275Z,45.25
2022-12-03T22:39:05.652Z,44.90
2022-12-03T22:41:31.966Z,53.28
2022-12-03T22:43:58.279Z,46.17
2022-12-03T22:46:24.825Z,52.67
2022-12-03T22:48:51.246Z,51.35
2022-12-03T22:51:17.548Z,54.05
2022-12-03T22:53:43.956Z,49.33
2022-12-03T22:56:10.599Z,51.28
2022-12-03T22:58:37.736Z,50.35
2022-12-03T23:01:04.094Z,44.55
2022-12-03T23:03:33.287Z,46.20
2022-12-03T23:05:59.742Z,50.65
2022-12-03T23:08:26.145Z,53.95
2022-12-03T23:10:52.954Z,48.72
2022-12-03T23:13:19.981Z,52.28
2022-12-03T23:15:47.417Z,54.22
2022-12-03T23:18:13.893Z,59.33
2022-12-03T23:20:47.271Z,48.20
2022-12-03T23:23:14.018Z,50.72
2022-12-03T23:25:40.442Z,45.13
2022-12-03T23:28:07.438Z,46.10
2022-12-03T23:30:37.181Z,50.05
2022-12-03T23:33:04.100Z,48.83
2022-12-03T23:35:30.490Z,54.53
2022-12-03T23:37:56.820Z,55.67
2022-12-03T23:40:23.139Z,52.75
2022-12-03T23:42:49.882Z,55.30
2022-12-03T23:45:16.210Z,55.20
2022-12-03T23:47:42.551Z,53.22
2022-12-03T23:50:09.151Z,51.63
2022-12-03T23:52:36.090Z,56.75
2022-12-03T23:55:02.746Z,55.75
2022-12-03T23:57:29.154Z,55.60
2022-12-03T23:59:55.599Z,49.40
